Anderson Township, OH (45230)

9:37 AM EDT on August 31, 2015 (GMT -0400)
APRSWXNET | | Change Station
CLOSE
Current Station
Personal Weather Station
Location: Anderson, OH
Elevation: 862 ft
Nearby Weather Stations

Elev 862 ft 39.09 °N, 84.33 °W | Updated 31 minutes ago

Mostly Cloudy
Mostly Cloudy
71 °F
Feels Like 71 °F
N
0
Wind Variable Wind from South
Gusts 4.0 mph

Today
High -- | Low -- °F
--% Chance of Precip.
Yesterday
High -- | Low -- °F
Precip. -- in
7:05 AM 8:09 PM
Waning Gibbous, 95% visible
Pressure 30.13 in
Visibility 8.0 miles
Clouds Few 4100 ft
Scattered Clouds 4900 ft
Mostly Cloudy 6000 ft
Dew Point 68 °F
Humidity 90%
Rainfall in
Snow Depth Not available.
UV 1 out of 12
Pollen 10.10 out of 12
Air Quality Not available.
Flu Activity Not available.
METAR KLUK 311253Z 00000KT 8SM FEW041 SCT049 BKN060 21/20 A3014 RMK AO2 SLP201 T02110200
Pressure 30.13 in
Visibility 8.0 miles
Clouds Few 4100 ft
Scattered Clouds 4900 ft
Mostly Cloudy 6000 ft
Dew Point 68 °F
Humidity 90%
Rainfall in
Snow Depth Not available.
UV 1 out of 12
Pollen 10.10 out of 12
Air Quality Not available.
Flu Activity Not available.
METAR KLUK 311253Z 00000KT 8SM FEW041 SCT049 BKN060 21/20 A3014 RMK AO2 SLP201 T02110200

10-Day Weather Forecast

×

Almanac

Astronomy

Aug. 31, 2015 Rise Set
Actual Time
Civil Twilight
Nautical Twilight
Astronomical Twilight
Moon
Length of Visible Light
Length of Day
Tomorrow will be .
, % of the Moon is Illuminated

Today's Extremes

State Highs State Lows

Community

WunderPhotos

Upload Photos

1,851,218 photos uploaded!

WunderBlogs® & News

Nearby

Air Quality

  Air Quality AQ Index Pollutant
Not available.

Snow Depth

Station Depth Elevation

Earthquake Activity

City Distance Mag. Time & Date
Minimum magnitude displayed is 2.5.

Coastal Water Temperatures

Place Temperature

Stations

Nearby Weather Stations

Station Location Temp. Windchill Dew Point Humidity Wind Precip. Elev Updated Type